Time;durP1;ratioP1;P1;durP2;ratioP2;P2;SDS_P1;SDS_P2;PMS_P1;PMS_P2;Temp;Humidity;BMP_temperature;BMP_pressure;BME280_temperature;BME280_humidity;BME280_pressure;Samples;Min_cycle;Max_cycle;Signal;HPM_P1;HPM_P2
2023/01/29 00:02:21;;;;;;;13.45;9.13;;;2.40;99.90;;;;;;5015310;28;20057;-77
2023/01/29 00:04:47;;;;;;;14.00;8.75;;;2.30;99.90;;;;;;5015143;28;20631;-75
2023/01/29 00:07:13;;;;;;;13.02;8.20;;;2.40;99.90;;;;;;5015989;28;20097;-78
2023/01/29 00:09:39;;;;;;;15.15;10.00;;;2.90;99.90;;;;;;5014987;28;20360;-75
2023/01/29 00:12:07;;;;;;;16.75;9.48;;;2.20;99.90;;;;;;4998046;28;20045;-75
2023/01/29 00:14:33;;;;;;;13.45;9.20;;;2.20;99.90;;;;;;5014137;28;20120;-77
2023/01/29 00:16:59;;;;;;;13.13;8.65;;;2.30;99.90;;;;;;5013947;28;20041;-74
2023/01/29 00:19:25;;;;;;;13.10;8.05;;;2.30;99.90;;;;;;5014132;28;20160;-75
2023/01/29 00:21:51;;;;;;;14.27;9.15;;;2.30;99.90;;;;;;5015818;28;20470;-74
2023/01/29 00:24:16;;;;;;;15.75;10.20;;;2.50;99.90;;;;;;5015168;28;20045;-75
2023/01/29 00:26:42;;;;;;;14.43;9.27;;;2.30;99.90;;;;;;5013968;28;20486;-75
2023/01/29 00:29:08;;;;;;;15.68;9.95;;;2.80;99.90;;;;;;5014188;28;20041;-75
2023/01/29 00:31:34;;;;;;;12.82;8.73;;;2.70;99.90;;;;;;5014592;28;20050;-76
2023/01/29 00:33:59;;;;;;;12.60;8.55;;;2.30;99.90;;;;;;5014348;28;20045;-76
2023/01/29 00:36:26;;;;;;;16.02;9.65;;;2.30;99.90;;;;;;5014692;28;20057;-75
2023/01/29 00:39:01;;;;;;;14.85;9.10;;;2.30;99.90;;;;;;4997442;28;20046;-75
2023/01/29 00:46:58;;;;;;;13.90;8.60;;;2.40;99.90;;;;;;5013271;28;20052;-76
2023/01/29 00:49:23;;;;;;;12.40;8.27;;;2.40;99.90;;;;;;5014558;28;20088;-75
2023/01/29 00:54:34;;;;;;;13.50;8.75;;;2.30;99.90;;;;;;5013669;28;20066;-76
2023/01/29 00:57:00;;;;;;;18.88;8.85;;;2.30;99.90;;;;;;5013228;28;20046;-76
2023/01/29 00:59:26;;;;;;;14.98;8.50;;;2.30;99.90;;;;;;5013160;28;20471;-76
2023/01/29 01:04:36;;;;;;;16.98;10.48;;;2.40;99.90;;;;;;5014117;28;20080;-75
2023/01/29 01:07:02;;;;;;;13.55;8.77;;;2.40;99.90;;;;;;5014806;28;20050;-78
2023/01/29 01:12:11;;;;;;;13.60;8.82;;;2.90;99.90;;;;;;5013656;28;20060;-76
2023/01/29 01:14:37;;;;;;;13.50;8.70;;;2.40;99.90;;;;;;5014591;28;20128;-75
2023/01/29 01:17:03;;;;;;;14.75;9.82;;;2.40;99.90;;;;;;5014094;28;20053;-76
2023/01/29 01:19:28;;;;;;;13.25;8.15;;;2.40;99.90;;;;;;5014096;28;20112;-75
2023/01/29 01:21:54;;;;;;;13.52;9.57;;;2.40;99.90;;;;;;5013031;28;20137;-77
2023/01/29 01:24:20;;;;;;;13.45;8.50;;;2.80;99.90;;;;;;5014077;28;20053;-75
2023/01/29 01:26:45;;;;;;;15.35;9.70;;;2.40;99.90;;;;;;5013151;28;20057;-76
2023/01/29 01:29:11;;;;;;;15.63;11.13;;;2.80;99.90;;;;;;5012383;28;20053;-75
2023/01/29 01:31:37;;;;;;;14.07;9.27;;;2.60;99.90;;;;;;5013675;28;20116;-75
2023/01/29 01:34:03;;;;;;;14.90;10.23;;;2.40;99.90;;;;;;5012814;28;20177;-76
2023/01/29 01:36:31;;;;;;;14.02;9.57;;;2.90;99.90;;;;;;5012849;28;20112;-76
2023/01/29 01:38:57;;;;;;;16.00;8.57;;;2.80;99.90;;;;;;5014301;28;20054;-76
2023/01/29 01:41:23;;;;;;;11.95;8.43;;;3.00;99.90;;;;;;5013743;28;20479;-75
2023/01/29 01:43:53;;;;;;;13.10;8.52;;;2.40;99.90;;;;;;5013296;28;20056;-76
2023/01/29 01:46:20;;;;;;;15.13;9.38;;;2.40;99.90;;;;;;5012778;28;20037;-75
2023/01/29 01:48:54;;;;;;;14.15;8.70;;;2.50;99.90;;;;;;5012734;28;20050;-77
2023/01/29 01:51:22;;;;;;;14.55;9.93;;;2.40;99.90;;;;;;5013674;28;20050;-76
2023/01/29 01:54:01;;;;;;;14.80;9.57;;;2.50;99.90;;;;;;5014194;28;20103;-76
2023/01/29 01:56:37;;;;;;;14.43;8.82;;;2.50;99.90;;;;;;5012335;28;20125;-75
2023/01/29 01:59:06;;;;;;;13.43;8.82;;;2.70;99.90;;;;;;5012387;28;20053;-76
2023/01/29 02:01:32;;;;;;;14.75;9.45;;;3.00;99.90;;;;;;5013378;28;20049;-77
2023/01/29 02:09:51;;;;;;;15.33;9.50;;;2.50;99.90;;;;;;5012614;28;20058;-75
2023/01/29 02:12:18;;;;;;;14.07;9.15;;;2.50;99.90;;;;;;5012194;28;20494;-75
2023/01/29 02:14:45;;;;;;;15.15;9.23;;;2.50;99.90;;;;;;4996095;28;20077;-76
2023/01/29 02:17:13;;;;;;;15.50;9.45;;;2.50;99.90;;;;;;5013876;28;20045;-76
2023/01/29 02:20:10;;;;;;;13.77;8.80;;;2.50;99.90;;;;;;5013474;28;20474;-76
2023/01/29 02:22:46;;;;;;;15.23;9.55;;;2.50;99.90;;;;;;5012685;28;20050;-76
2023/01/29 02:25:48;;;;;;;13.90;8.67;;;2.50;99.90;;;;;;5012924;28;20080;-76
2023/01/29 02:28:28;;;;;;;13.93;8.93;;;2.50;99.90;;;;;;5013392;28;20273;-76
2023/01/29 02:31:21;;;;;;;12.77;7.95;;;2.50;99.90;;;;;;5012650;28;20054;-79
2023/01/29 02:33:58;;;;;;;13.88;7.90;;;2.50;99.90;;;;;;5013074;28;20502;-78
2023/01/29 02:36:58;;;;;;;16.92;10.20;;;2.50;99.90;;;;;;4996522;28;20461;-78
2023/01/29 02:39:50;;;;;;;14.40;8.90;;;2.50;99.90;;;;;;5016664;28;20050;-78
2023/01/29 02:42:55;;;;;;;16.48;9.55;;;3.20;99.90;;;;;;5016269;28;20045;-78
2023/01/29 02:45:32;;;;;;;15.07;9.38;;;2.90;99.90;;;;;;5031682;28;20077;-77
2023/01/29 02:48:00;;;;;;;14.70;9.15;;;2.90;99.90;;;;;;5016720;28;20099;-77
2023/01/29 02:50:48;;;;;;;15.38;9.57;;;2.50;99.90;;;;;;5016595;28;20050;-77
2023/01/29 02:53:20;;;;;;;13.60;9.02;;;2.50;99.90;;;;;;5016068;28;20060;-77
2023/01/29 02:55:54;;;;;;;16.15;10.65;;;2.50;99.90;;;;;;5016110;28;20061;-77
2023/01/29 02:58:34;;;;;;;13.25;9.10;;;2.70;99.90;;;;;;4999056;28;20141;-77
2023/01/29 03:01:06;;;;;;;13.63;8.65;;;2.50;99.90;;;;;;5000112;28;20382;-77
2023/01/29 03:03:39;;;;;;;14.98;9.52;;;2.50;99.90;;;;;;5016339;28;20085;-78
2023/01/29 03:06:19;;;;;;;13.35;9.00;;;2.70;99.90;;;;;;5016470;28;20046;-77
2023/01/29 03:08:57;;;;;;;12.98;8.70;;;2.50;99.90;;;;;;4999055;28;20045;-77
2023/01/29 03:11:26;;;;;;;13.43;8.65;;;2.50;99.90;;;;;;5015531;28;20104;-77
2023/01/29 03:14:12;;;;;;;12.40;8.55;;;2.50;99.90;;;;;;5014679;28;20136;-77
2023/01/29 03:16:50;;;;;;;13.88;8.43;;;2.50;99.90;;;;;;5015272;28;20057;-77
2023/01/29 03:19:18;;;;;;;13.48;8.65;;;2.90;99.90;;;;;;4998832;28;20050;-77
2023/01/29 03:21:54;;;;;;;14.85;9.35;;;2.50;99.90;;;;;;5016202;28;20111;-78
2023/01/29 03:33:05;;;;;;;16.58;9.10;;;2.50;99.90;;;;;;5015628;28;20084;-77
2023/01/29 03:35:36;;;;;;;15.80;9.35;;;2.50;99.90;;;;;;5015534;28;20140;-77
2023/01/29 03:38:11;;;;;;;13.45;9.40;;;2.50;99.90;;;;;;5015809;28;20050;-78
2023/01/29 03:40:48;;;;;;;15.35;9.10;;;2.50;99.90;;;;;;5015328;28;20046;-77
2023/01/29 03:43:18;;;;;;;12.95;8.00;;;3.00;99.90;;;;;;4999347;28;20053;-78
2023/01/29 03:46:07;;;;;;;15.15;9.65;;;2.50;99.90;;;;;;5014796;28;20077;-77
2023/01/29 03:48:51;;;;;;;17.05;9.50;;;2.50;99.90;;;;;;5014894;28;20068;-77
2023/01/29 03:51:20;;;;;;;17.05;10.88;;;2.50;99.90;;;;;;5014980;28;20088;-76
2023/01/29 03:54:10;;;;;;;17.63;10.60;;;3.00;99.90;;;;;;5014834;28;20391;-78
2023/01/29 03:56:45;;;;;;;14.82;9.85;;;2.50;99.90;;;;;;4998134;28;20053;-77
2023/01/29 03:59:31;;;;;;;14.23;9.45;;;3.00;99.90;;;;;;5014893;28;20266;-76
2023/01/29 04:02:00;;;;;;;17.17;10.90;;;3.10;99.90;;;;;;5007258;28;20080;-77
2023/01/29 04:04:37;;;;;;;17.25;10.45;;;2.60;99.90;;;;;;5014358;28;20054;-77
2023/01/29 04:07:15;;;;;;;15.80;10.90;;;2.60;99.90;;;;;;5014130;28;20041;-77
2023/01/29 04:09:49;;;;;;;15.52;10.15;;;2.60;99.90;;;;;;5014484;28;20072;-77
2023/01/29 04:12:20;;;;;;;14.10;10.05;;;2.60;99.90;;;;;;4998259;28;20058;-77
2023/01/29 04:14:49;;;;;;;16.23;10.85;;;2.60;99.90;;;;;;4998761;28;20050;-76
2023/01/29 04:17:26;;;;;;;15.55;10.73;;;2.70;99.90;;;;;;5014132;28;20057;-76
2023/01/29 04:19:52;;;;;;;17.00;9.65;;;3.20;99.90;;;;;;5014173;28;20128;-76
2023/01/29 04:22:23;;;;;;;15.65;10.30;;;2.70;99.90;;;;;;5013822;28;20136;-76
2023/01/29 04:24:49;;;;;;;18.10;10.55;;;2.90;99.90;;;;;;5014695;28;20068;-76
2023/01/29 04:27:27;;;;;;;14.65;9.57;;;2.70;99.90;;;;;;5013458;28;20113;-78
2023/01/29 04:30:16;;;;;;;16.70;11.98;;;2.70;99.90;;;;;;5013413;28;20133;-77
2023/01/29 04:32:52;;;;;;;17.27;10.13;;;2.70;99.90;;;;;;4996572;28;20100;-76
2023/01/29 04:35:25;;;;;;;16.45;10.73;;;3.00;99.90;;;;;;5013857;28;20482;-77
2023/01/29 04:38:18;;;;;;;15.10;8.73;;;2.80;99.90;;;;;;5013289;28;20494;-77
2023/01/29 04:41:02;;;;;;;17.60;10.27;;;2.80;99.90;;;;;;5014012;28;20054;-77
2023/01/29 04:43:52;;;;;;;15.90;10.10;;;3.30;99.90;;;;;;5015352;28;20045;-78
2023/01/29 04:46:33;;;;;;;13.80;9.90;;;2.70;99.90;;;;;;5014398;28;20046;-78
2023/01/29 04:49:17;;;;;;;13.38;9.27;;;2.70;99.90;;;;;;5013929;28;20046;-76
2023/01/29 04:52:14;;;;;;;15.98;10.38;;;2.80;99.90;;;;;;4997470;28;20057;-76
2023/01/29 04:54:52;;;;;;;15.93;10.73;;;2.70;99.90;;;;;;5013563;28;20513;-78
2023/01/29 04:57:25;;;;;;;14.10;9.70;;;2.80;99.90;;;;;;5013751;28;20092;-76
2023/01/29 05:00:10;;;;;;;16.25;10.48;;;2.80;99.90;;;;;;4997434;28;20411;-76
2023/01/29 05:02:38;;;;;;;17.05;10.30;;;2.80;99.90;;;;;;5013451;28;20084;-76
2023/01/29 05:05:06;;;;;;;16.27;9.82;;;2.80;99.90;;;;;;4996662;28;20090;-77
2023/01/29 05:07:34;;;;;;;17.05;11.25;;;2.80;99.90;;;;;;5014464;28;20406;-76
2023/01/29 05:10:01;;;;;;;14.10;10.00;;;2.80;99.90;;;;;;5014249;28;20041;-76
2023/01/29 05:12:29;;;;;;;16.00;10.43;;;2.80;99.90;;;;;;5013033;28;20054;-76
2023/01/29 05:15:01;;;;;;;16.15;10.95;;;3.30;99.90;;;;;;5013955;28;20153;-77
2023/01/29 05:17:27;;;;;;;17.30;10.32;;;3.40;99.90;;;;;;4997060;28;20077;-77
2023/01/29 05:19:55;;;;;;;17.38;10.98;;;2.80;99.90;;;;;;5013363;28;20045;-76
2023/01/29 05:22:22;;;;;;;16.30;10.57;;;3.20;99.90;;;;;;5014033;28;20085;-77
2023/01/29 05:24:48;;;;;;;17.40;11.35;;;3.30;99.90;;;;;;5013512;28;20045;-77
2023/01/29 05:30:09;;;;;;;16.52;11.32;;;2.90;99.90;;;;;;5013682;28;20085;-77
2023/01/29 05:32:35;;;;;;;15.27;11.10;;;2.90;99.90;;;;;;4996677;28;20399;-77
2023/01/29 05:35:00;;;;;;;16.35;10.77;;;3.00;99.90;;;;;;5012713;28;20057;-77
2023/01/29 05:37:26;;;;;;;19.25;12.10;;;3.10;99.90;;;;;;4996627;28;20123;-75
2023/01/29 05:39:51;;;;;;;17.85;11.90;;;2.90;99.90;;;;;;5013085;28;20116;-77
2023/01/29 05:42:18;;;;;;;19.83;11.93;;;3.00;99.90;;;;;;4996163;28;20092;-77
2023/01/29 05:44:43;;;;;;;18.67;11.85;;;2.90;99.90;;;;;;4996405;28;20048;-75
2023/01/29 05:47:09;;;;;;;16.58;11.70;;;3.00;99.90;;;;;;5012696;28;20054;-78
2023/01/29 05:49:35;;;;;;;17.67;12.02;;;3.00;99.90;;;;;;5013595;28;20053;-76
2023/01/29 05:52:00;;;;;;;18.00;11.85;;;3.40;99.90;;;;;;4996261;28;20053;-76
2023/01/29 05:54:26;;;;;;;17.30;11.63;;;3.00;99.90;;;;;;5012641;28;20049;-76
2023/01/29 05:56:52;;;;;;;19.00;13.20;;;3.60;99.90;;;;;;4996243;28;20046;-76
2023/01/29 05:59:17;;;;;;;15.50;11.48;;;3.00;99.90;;;;;;4997030;28;20470;-77
2023/01/29 06:01:43;;;;;;;15.48;11.27;;;3.00;99.90;;;;;;4996475;28;20128;-76
2023/01/29 06:04:09;;;;;;;16.88;11.15;;;3.70;99.90;;;;;;5012880;28;20481;-76
2023/01/29 06:06:34;;;;;;;16.48;11.07;;;3.00;99.90;;;;;;5012057;28;20088;-77
2023/01/29 06:09:00;;;;;;;17.10;12.25;;;3.10;99.90;;;;;;4995910;28;20408;-76
2023/01/29 06:11:26;;;;;;;17.65;11.70;;;3.70;99.90;;;;;;5012693;28;20104;-76
2023/01/29 06:13:51;;;;;;;15.90;10.35;;;3.00;99.90;;;;;;4999864;28;20049;-77
2023/01/29 06:16:17;;;;;;;16.63;11.88;;;3.00;99.90;;;;;;5000669;28;20058;-77
2023/01/29 06:18:43;;;;;;;17.15;13.40;;;3.10;99.90;;;;;;5017167;28;20053;-77
2023/01/29 06:21:11;;;;;;;18.17;13.77;;;3.90;99.90;;;;;;5017044;28;20072;-76
2023/01/29 06:23:37;;;;;;;20.58;12.30;;;3.10;99.90;;;;;;5016284;28;20049;-77
2023/01/29 06:26:06;;;;;;;19.92;14.30;;;3.10;99.90;;;;;;5015921;28;20077;-76
2023/01/29 06:28:31;;;;;;;17.95;13.20;;;3.10;99.90;;;;;;4999823;28;20457;-77
2023/01/29 06:30:58;;;;;;;16.67;11.85;;;3.80;99.90;;;;;;5017211;28;20045;-77
2023/01/29 06:33:25;;;;;;;19.15;13.45;;;3.60;99.90;;;;;;5016230;28;20046;-77
2023/01/29 06:36:03;;;;;;;19.95;14.75;;;3.00;99.90;;;;;;5015819;28;20049;-77
2023/01/29 06:38:29;;;;;;;15.65;11.68;;;3.10;99.90;;;;;;5016051;28;20439;-78
2023/01/29 06:40:55;;;;;;;20.00;13.77;;;3.30;99.90;;;;;;5016215;28;20132;-76
2023/01/29 06:43:22;;;;;;;19.40;13.13;;;3.00;99.90;;;;;;5015881;28;20061;-77
2023/01/29 06:45:54;;;;;;;19.60;14.63;;;3.60;99.90;;;;;;5000124;28;20049;-77
2023/01/29 06:48:19;;;;;;;16.95;11.52;;;3.00;99.90;;;;;;5015553;28;20049;-77
2023/01/29 06:50:46;;;;;;;16.85;11.75;;;3.20;99.90;;;;;;5015819;28;20045;-77
2023/01/29 06:53:12;;;;;;;19.00;13.88;;;3.30;99.90;;;;;;5015775;28;20056;-76
2023/01/29 06:55:38;;;;;;;18.67;12.63;;;3.10;99.90;;;;;;5016746;28;20394;-77
2023/01/29 06:58:06;;;;;;;19.13;13.05;;;3.50;99.90;;;;;;5016519;28;20050;-77
2023/01/29 07:00:32;;;;;;;17.73;12.52;;;3.30;99.90;;;;;;5016454;28;20046;-76
2023/01/29 07:02:57;;;;;;;18.42;12.27;;;3.00;99.90;;;;;;4999476;28;20056;-77
2023/01/29 07:05:23;;;;;;;19.80;13.80;;;3.60;99.90;;;;;;4999000;28;20050;-76
2023/01/29 07:07:49;;;;;;;19.38;12.63;;;3.00;99.90;;;;;;5015611;28;20050;-76
2023/01/29 07:10:14;;;;;;;18.25;13.70;;;3.00;99.90;;;;;;5015781;28;20056;-77
2023/01/29 07:12:40;;;;;;;19.50;14.90;;;3.00;99.90;;;;;;5015415;28;20061;-77
2023/01/29 07:15:06;;;;;;;16.30;12.77;;;3.10;99.90;;;;;;5015384;28;20487;-77
2023/01/29 07:17:32;;;;;;;15.40;12.18;;;3.00;99.90;;;;;;4999038;28;20046;-76
2023/01/29 07:19:58;;;;;;;19.13;13.75;;;3.00;99.90;;;;;;5015295;28;20049;-76
2023/01/29 07:22:23;;;;;;;18.73;13.63;;;3.00;99.90;;;;;;4999166;28;20132;-77
2023/01/29 07:24:49;;;;;;;21.05;13.10;;;3.10;99.90;;;;;;4998732;28;20042;-76
2023/01/29 07:27:15;;;;;;;20.98;13.57;;;3.00;99.90;;;;;;4998818;28;20132;-76
2023/01/29 07:29:40;;;;;;;17.15;12.88;;;3.30;99.90;;;;;;5014917;28;20052;-76
2023/01/29 07:32:06;;;;;;;18.38;13.32;;;3.60;99.90;;;;;;5015200;28;20509;-77
2023/01/29 07:34:32;;;;;;;20.30;13.23;;;3.00;99.90;;;;;;5015792;28;20046;-76
2023/01/29 07:36:58;;;;;;;19.85;13.07;;;3.40;99.90;;;;;;5014722;28;20045;-76
2023/01/29 07:39:24;;;;;;;19.23;13.93;;;3.10;99.90;;;;;;5015245;28;20379;-76
2023/01/29 07:41:49;;;;;;;18.20;13.50;;;3.00;99.90;;;;;;5014389;28;20054;-76
2023/01/29 07:44:15;;;;;;;17.08;12.07;;;3.80;99.90;;;;;;4999030;28;20073;-75
2023/01/29 07:46:41;;;;;;;18.65;14.60;;;3.60;99.90;;;;;;5014623;28;20089;-75
2023/01/29 07:49:06;;;;;;;18.85;14.43;;;3.00;99.90;;;;;;4998085;28;20050;-72
2023/01/29 07:51:32;;;;;;;18.65;13.05;;;3.10;99.90;;;;;;5015226;28;20374;-72
2023/01/29 07:53:58;;;;;;;19.15;13.00;;;2.90;99.90;;;;;;5015624;28;20050;-73
2023/01/29 07:56:23;;;;;;;19.30;12.93;;;3.00;99.90;;;;;;5014417;28;20081;-73
2023/01/29 07:58:49;;;;;;;15.95;12.07;;;3.00;99.90;;;;;;5016262;28;20041;-72
2023/01/29 08:01:15;;;;;;;18.42;13.00;;;3.00;99.90;;;;;;5015720;28;20133;-73
2023/01/29 08:03:41;;;;;;;16.38;12.25;;;3.20;99.90;;;;;;5014414;28;20125;-73
2023/01/29 08:06:06;;;;;;;18.77;13.55;;;3.30;99.90;;;;;;5015042;28;20042;-73
2023/01/29 08:08:32;;;;;;;18.98;13.95;;;3.00;99.90;;;;;;5015432;28;20050;-73
2023/01/29 08:11:01;;;;;;;22.73;14.02;;;3.10;99.90;;;;;;5014917;28;20050;-72
2023/01/29 08:13:27;;;;;;;17.92;12.98;;;3.20;99.90;;;;;;5013750;28;20511;-72
2023/01/29 08:15:52;;;;;;;18.35;12.93;;;3.40;99.90;;;;;;5015634;28;20108;-72
2023/01/29 08:18:18;;;;;;;21.00;13.35;;;3.20;99.90;;;;;;4997842;28;20045;-73
2023/01/29 08:20:44;;;;;;;20.50;14.23;;;3.00;99.90;;;;;;5015060;28;20092;-72
2023/01/29 08:23:15;;;;;;;18.02;12.93;;;3.10;99.90;;;;;;5014870;28;20459;-73
2023/01/29 08:25:40;;;;;;;17.27;11.68;;;3.00;99.90;;;;;;5014883;28;20056;-72
2023/01/29 08:28:06;;;;;;;18.92;13.95;;;3.30;99.90;;;;;;5013986;28;20049;-72
2023/01/29 08:30:33;;;;;;;18.73;13.60;;;2.90;99.90;;;;;;5015403;28;20057;-73
2023/01/29 08:32:59;;;;;;;17.23;12.32;;;2.90;99.90;;;;;;5014895;28;20429;-71
2023/01/29 08:35:26;;;;;;;19.48;13.90;;;2.90;99.90;;;;;;5012388;28;20041;-78
2023/01/29 08:37:58;;;;;;;18.13;13.32;;;3.20;99.90;;;;;;4997019;28;20046;-78
2023/01/29 08:40:24;;;;;;;17.25;11.80;;;3.20;99.90;;;;;;4998117;28;20088;-78
2023/01/29 08:42:50;;;;;;;20.80;12.43;;;2.90;99.90;;;;;;5013541;28;20084;-78
2023/01/29 08:45:15;;;;;;;18.92;12.43;;;2.90;99.90;;;;;;5013646;28;20085;-78
2023/01/29 08:47:48;;;;;;;18.13;12.00;;;2.90;99.90;;;;;;5013210;28;20486;-78
2023/01/29 08:50:15;;;;;;;17.85;12.73;;;2.90;99.90;;;;;;5013481;28;20042;-77
2023/01/29 08:52:42;;;;;;;19.23;13.77;;;2.90;99.90;;;;;;5013641;28;20359;-77
2023/01/29 08:55:07;;;;;;;19.80;13.25;;;3.20;99.90;;;;;;5013018;28;20089;-78
2023/01/29 08:57:33;;;;;;;17.88;11.65;;;2.90;99.90;;;;;;4997598;28;20099;-80
2023/01/29 08:59:59;;;;;;;20.38;12.52;;;3.10;99.90;;;;;;4996997;28;20545;-79
2023/01/29 09:02:24;;;;;;;18.90;12.88;;;2.90;99.90;;;;;;4997004;28;20042;-78
2023/01/29 09:04:50;;;;;;;18.63;12.65;;;2.90;99.90;;;;;;5013074;28;20046;-78
2023/01/29 09:07:16;;;;;;;19.50;12.20;;;2.90;99.90;;;;;;5013873;28;20042;-78
2023/01/29 09:09:42;;;;;;;18.02;12.90;;;3.50;99.90;;;;;;5013564;28;20041;-79
2023/01/29 09:12:07;;;;;;;19.45;13.65;;;3.00;99.90;;;;;;5012879;28;20054;-79
2023/01/29 09:14:33;;;;;;;18.85;13.48;;;3.00;99.90;;;;;;4997149;28;20061;-80
2023/01/29 09:16:58;;;;;;;20.13;14.43;;;3.00;99.90;;;;;;5013085;28;20492;-76
2023/01/29 09:19:24;;;;;;;20.40;12.65;;;3.00;99.90;;;;;;4996755;28;20546;-79
2023/01/29 09:21:50;;;;;;;16.73;11.27;;;3.60;99.90;;;;;;4996525;28;20120;-78
2023/01/29 09:24:16;;;;;;;19.85;13.25;;;3.10;99.90;;;;;;5013120;28;20048;-77
2023/01/29 09:26:42;;;;;;;18.27;13.65;;;3.10;99.90;;;;;;4996624;28;20045;-79
2023/01/29 09:29:09;;;;;;;18.17;12.43;;;3.50;99.90;;;;;;5013518;28;20100;-79
2023/01/29 09:31:35;;;;;;;18.05;13.25;;;3.10;99.90;;;;;;5012760;28;20384;-78
2023/01/29 09:34:00;;;;;;;18.55;13.30;;;3.40;99.90;;;;;;5013159;28;20092;-77
2023/01/29 09:36:26;;;;;;;20.38;14.23;;;3.60;99.90;;;;;;5012548;28;20045;-79
2023/01/29 09:38:52;;;;;;;15.90;12.02;;;3.20;99.90;;;;;;5013501;28;20140;-77
2023/01/29 09:41:36;;;;;;;19.38;13.43;;;3.80;99.90;;;;;;5012612;28;20497;-77
2023/01/29 09:44:22;;;;;;;18.38;13.93;;;3.30;99.90;;;;;;4996531;28;20057;-75
2023/01/29 09:46:50;;;;;;;19.38;13.80;;;3.30;99.90;;;;;;5012153;28;20038;-76
2023/01/29 09:49:24;;;;;;;18.65;12.80;;;3.40;99.90;;;;;;5013304;28;20050;-76
2023/01/29 09:51:56;;;;;;;18.77;13.63;;;3.30;99.90;;;;;;5012688;28;20057;-81
2023/01/29 09:54:30;;;;;;;17.75;12.80;;;3.70;99.90;;;;;;4996585;28;20049;-80
2023/01/29 09:56:56;;;;;;;17.42;11.68;;;3.40;99.90;;;;;;5012761;28;20050;-79
2023/01/29 09:59:26;;;;;;;20.70;14.07;;;3.40;99.90;;;;;;4996672;28;20058;-80
2023/01/29 10:02:06;;;;;;;19.83;13.85;;;3.50;99.90;;;;;;5012429;28;20053;-79
2023/01/29 10:04:54;;;;;;;20.20;14.32;;;3.50;99.90;;;;;;4996327;28;20137;-80
2023/01/29 10:07:55;;;;;;;18.35;12.23;;;3.60;99.90;;;;;;4996313;28;20045;-80
2023/01/29 10:10:23;;;;;;;18.85;12.80;;;3.60;99.90;;;;;;5013166;28;20054;-81
2023/01/29 10:12:56;;;;;;;18.48;12.63;;;3.60;99.90;;;;;;5011956;28;20057;-80
2023/01/29 10:15:53;;;;;;;17.13;11.40;;;3.90;99.90;;;;;;4996345;28;20054;-80
2023/01/29 10:18:52;;;;;;;19.38;13.02;;;3.70;99.90;;;;;;4996415;28;20490;-81
2023/01/29 10:22:15;;;;;;;18.60;13.48;;;3.80;99.90;;;;;;5012715;28;20054;-80
2023/01/29 10:24:52;;;;;;;17.35;13.15;;;3.80;99.90;;;;;;4959164;28;20046;-79
2023/01/29 10:27:18;;;;;;;17.35;13.40;;;3.70;99.90;;;;;;4976162;28;20050;-80
2023/01/29 10:29:47;;;;;;;17.45;12.38;;;4.10;99.90;;;;;;4993801;28;20521;-81
2023/01/29 10:32:19;;;;;;;18.25;13.45;;;3.70;99.90;;;;;;5011689;28;20065;-79
2023/01/29 10:34:56;;;;;;;19.23;13.00;;;3.90;99.90;;;;;;5012473;28;20092;-80
2023/01/29 10:37:44;;;;;;;18.90;14.05;;;3.70;99.90;;;;;;4996245;28;20467;-81
2023/01/29 10:40:20;;;;;;;19.00;13.13;;;4.20;99.90;;;;;;5012102;28;20124;-81
2023/01/29 10:42:48;;;;;;;;;;;3.70;99.90;;;;;;4979877;28;20049;-82
2023/01/29 10:45:23;;;;;;;18.45;12.95;;;3.70;99.90;;;;;;4995949;28;19972;-78
2023/01/29 10:47:51;;;;;;;19.95;13.27;;;3.70;99.90;;;;;;5012477;28;20046;-81
2023/01/29 10:50:35;;;;;;;19.05;13.32;;;3.70;99.90;;;;;;5012103;28;20050;-78
2023/01/29 10:53:49;;;;;;;20.60;15.43;;;3.70;99.90;;;;;;5012405;28;20441;-82
2023/01/29 10:56:56;;;;;;;22.23;13.85;;;3.70;99.90;;;;;;4974942;28;20113;-81
2023/01/29 10:59:36;;;;;;;19.67;12.50;;;3.70;99.90;;;;;;4972925;28;20096;-81
2023/01/29 11:02:02;;;;;;;18.98;13.95;;;4.00;99.90;;;;;;4996014;28;20058;-78
2023/01/29 11:04:30;;;;;;;20.42;13.05;;;3.80;99.90;;;;;;5015295;28;20100;-79
2023/01/29 11:06:56;;;;;;;18.58;13.02;;;4.50;99.90;;;;;;5015371;28;20052;-77
2023/01/29 11:09:29;;;;;;;18.20;13.68;;;3.80;99.90;;;;;;5015658;28;20045;-79
2023/01/29 11:12:08;;;;;;;20.95;14.07;;;3.80;99.90;;;;;;5014900;28;20045;-78
2023/01/29 11:15:15;;;;;;;18.77;13.70;;;3.90;99.90;;;;;;5015830;28;20090;-79
2023/01/29 11:18:13;;;;;;;18.45;13.95;;;3.90;99.90;;;;;;5016119;28;20053;-77
2023/01/29 11:20:40;;;;;;;19.30;13.93;;;4.50;99.90;;;;;;5016061;28;20132;-78
2023/01/29 11:23:27;;;;;;;21.52;14.70;;;3.80;99.90;;;;;;5015956;28;20371;-77
2023/01/29 11:25:54;;;;;;;19.65;14.68;;;3.90;99.90;;;;;;5017165;28;20124;-80
2023/01/29 11:28:40;;;;;;;19.45;14.73;;;3.90;99.90;;;;;;4999447;28;20049;-80
2023/01/29 11:31:24;;;;;;;20.50;13.73;;;3.90;99.90;;;;;;4999262;28;20053;-82
2023/01/29 11:34:32;;;;;;;21.58;14.30;;;3.90;99.90;;;;;;5016259;28;20054;-81
2023/01/29 11:37:15;;;;;;;21.42;15.77;;;4.00;99.90;;;;;;4999363;28;20053;-79
2023/01/29 11:39:49;;;;;;;21.38;13.65;;;4.10;99.90;;;;;;5016085;28;20069;-77
2023/01/29 11:42:20;;;;;;;22.17;13.98;;;4.00;99.90;;;;;;4999624;28;20133;-76
2023/01/29 11:44:46;;;;;;;20.00;14.70;;;4.10;99.90;;;;;;4998630;28;20088;-77
2023/01/29 11:47:26;;;;;;;18.40;14.45;;;4.10;99.90;;;;;;5015266;28;20057;-76
2023/01/29 11:49:53;;;;;;;21.30;14.88;;;4.10;99.90;;;;;;5015733;28;20139;-77
2023/01/29 11:52:40;;;;;;;17.83;13.82;;;4.20;99.90;;;;;;4999159;28;20050;-76
2023/01/29 11:55:14;;;;;;;18.50;13.48;;;4.60;99.90;;;;;;5015740;28;20085;-77
2023/01/29 11:57:42;;;;;;;18.55;13.68;;;4.60;99.90;;;;;;5014809;28;20129;-78
2023/01/29 12:00:27;;;;;;;20.58;13.27;;;4.20;99.90;;;;;;4998823;28;20053;-77
2023/01/29 12:03:21;;;;;;;17.65;12.18;;;4.30;99.90;;;;;;5014823;28;20505;-76
2023/01/29 12:05:57;;;;;;;19.75;14.02;;;4.30;99.90;;;;;;5009947;28;20403;-76
2023/01/29 12:08:23;;;;;;;19.92;13.93;;;4.30;99.90;;;;;;5015061;28;20542;-78
2023/01/29 12:10:49;;;;;;;21.08;14.05;;;4.60;99.90;;;;;;5014536;28;20056;-77
2023/01/29 12:13:27;;;;;;;20.58;15.40;;;4.50;99.90;;;;;;5014208;28;20050;-76
2023/01/29 12:16:14;;;;;;;18.75;14.25;;;4.30;99.90;;;;;;4982793;28;20058;-75
2023/01/29 12:19:05;;;;;;;18.63;14.13;;;4.60;99.90;;;;;;4998284;28;20065;-78
2023/01/29 12:21:51;;;;;;;22.40;15.98;;;4.30;99.90;;;;;;5015035;28;20137;-76
2023/01/29 12:24:42;;;;;;;20.23;14.13;;;4.30;99.90;;;;;;5015629;28;20046;-77
2023/01/29 12:27:26;;;;;;;19.75;13.57;;;4.30;99.90;;;;;;5014092;28;20558;-76
2023/01/29 12:30:02;;;;;;;19.27;15.15;;;4.20;99.90;;;;;;4998476;28;20046;-76
2023/01/29 12:32:55;;;;;;;17.75;13.35;;;4.10;99.90;;;;;;5014984;28;20050;-76
2023/01/29 12:35:31;;;;;;;21.27;14.02;;;4.10;99.90;;;;;;5013655;28;20137;-76
2023/01/29 12:38:08;;;;;;;20.30;13.27;;;4.10;99.90;;;;;;5014189;28;20137;-76
2023/01/29 12:40:41;;;;;;;20.75;13.75;;;4.10;99.90;;;;;;5014089;28;20057;-77
2023/01/29 12:43:14;;;;;;;22.58;12.90;;;4.30;99.90;;;;;;5015844;28;20056;-76
2023/01/29 12:45:43;;;;;;;20.50;14.07;;;4.10;99.90;;;;;;5014603;28;20041;-76
2023/01/29 12:48:13;;;;;;;21.30;14.20;;;4.10;99.90;;;;;;4997795;28;20060;-76
2023/01/29 12:50:39;;;;;;;21.90;16.27;;;4.00;99.90;;;;;;5014039;28;20054;-76
2023/01/29 12:53:19;;;;;;;21.48;14.20;;;4.00;99.90;;;;;;5013456;28;20049;-76
2023/01/29 12:55:54;;;;;;;23.48;15.90;;;3.90;99.90;;;;;;5014263;28;20356;-75
2023/01/29 12:58:33;;;;;;;24.48;16.58;;;4.10;99.90;;;;;;5013516;28;20084;-76
2023/01/29 13:01:26;;;;;;;24.08;15.55;;;4.10;99.90;;;;;;5015294;28;20378;-76
2023/01/29 13:03:58;;;;;;;24.98;17.23;;;3.70;99.90;;;;;;5014293;28;20093;-77
2023/01/29 13:06:37;;;;;;;24.70;16.23;;;3.60;99.90;;;;;;5014334;28;20045;-76
2023/01/29 13:09:10;;;;;;;20.35;12.98;;;3.70;99.90;;;;;;5013139;28;20422;-76
2023/01/29 13:12:13;;;;;;;20.35;14.77;;;3.70;99.90;;;;;;5014256;28;20050;-76
2023/01/29 13:14:56;;;;;;;23.80;17.85;;;3.70;99.90;;;;;;5001151;28;20140;-76
2023/01/29 13:17:28;;;;;;;22.67;15.18;;;3.70;99.90;;;;;;5014461;28;20397;-76
2023/01/29 13:19:58;;;;;;;25.33;17.40;;;3.70;99.90;;;;;;5013783;28;20050;-76
2023/01/29 13:22:27;;;;;;;22.23;16.33;;;3.70;99.90;;;;;;5013675;28;20188;-76
2023/01/29 13:24:53;;;;;;;23.75;15.93;;;4.10;99.90;;;;;;5012760;28;20137;-76
2023/01/29 13:27:30;;;;;;;22.60;15.88;;;3.80;99.90;;;;;;5013800;28;20458;-76
2023/01/29 13:29:56;;;;;;;24.50;15.63;;;3.60;99.90;;;;;;4997378;28;20085;-76
2023/01/29 13:32:30;;;;;;;21.63;15.63;;;3.90;99.90;;;;;;5013201;28;20057;-76
2023/01/29 13:35:00;;;;;;;25.48;16.27;;;3.50;99.90;;;;;;5013936;28;20045;-77
2023/01/29 13:37:35;;;;;;;24.17;14.60;;;4.20;99.90;;;;;;5012776;28;20426;-76
2023/01/29 13:40:04;;;;;;;21.27;14.35;;;3.50;99.90;;;;;;5013810;28;20060;-76